AUA14P LOWL-EDDF
Flight info
| Callsign | AUA14P |
|---|---|
| Flight time | 0h 52m |
| Altitude | 30000 |
| Route | LIDSI DCT SUBEN T161 AKINI T159 PETIX/N0391F240 T159 SPESA |
| Aircraft | A320/M-SDE3FGHIRWY/LB1 |
Departure
| Time | 2026-05-08 18:31 |
|---|---|
| Airport | Linz-Hörsching Airport (LOWL) |
Arrival
| Time | 2026-05-08 19:24 |
|---|---|
| Airport | Frankfurt Main Airport (EDDF) |
| Time | Latitude | Longitude | Altitude | Speed | Heading |
|---|---|---|---|---|---|
| 2026-05-08 18:29 | 48.23745 | 14.19602 | 972 ft | 12 kts | 160° |
| 2026-05-08 18:29 | 48.23670 | 14.19646 | 969 ft | 11 kts | 160° |
| 2026-05-08 18:29 | 48.23607 | 14.19681 | 972 ft | 8 kts | 158° |
| 2026-05-08 18:29 | 48.23561 | 14.19711 | 976 ft | 6 kts | 157° |
| 2026-05-08 18:30 | 48.23533 | 14.19727 | 974 ft | 2 kts | 159° |
| 2026-05-08 18:30 | 48.23509 | 14.19741 | 978 ft | 8 kts | 159° |
| 2026-05-08 18:30 | 48.23436 | 14.19786 | 978 ft | 15 kts | 155° |
| 2026-05-08 18:30 | 48.23355 | 14.19736 | 980 ft | 17 kts | 262° |
| 2026-05-08 18:31 | 48.23344 | 14.19390 | 978 ft | 64 kts | 267° |
| 2026-05-08 18:31 | 48.23306 | 14.18378 | 985 ft | 126 kts | 267° |
| 2026-05-08 18:31 | 48.23253 | 14.16862 | 1146 ft | 157 kts | 268° |
| 2026-05-08 18:31 | 48.23193 | 14.15238 | 1834 ft | 154 kts | 268° |
| 2026-05-08 18:32 | 48.23130 | 14.13614 | 2341 ft | 163 kts | 268° |
| 2026-05-08 18:32 | 48.23068 | 14.11845 | 2607 ft | 181 kts | 268° |
| 2026-05-08 18:32 | 48.23002 | 14.09829 | 2858 ft | 204 kts | 268° |
| 2026-05-08 18:32 | 48.22935 | 14.07608 | 3184 ft | 224 kts | 268° |
| 2026-05-08 18:33 | 48.22858 | 14.05118 | 3461 ft | 252 kts | 268° |
| 2026-05-08 18:33 | 48.22771 | 14.02402 | 4028 ft | 268 kts | 268° |
| 2026-05-08 18:33 | 48.22674 | 13.99577 | 4871 ft | 271 kts | 267° |
| 2026-05-08 18:33 | 48.22568 | 13.96760 | 5796 ft | 273 kts | 266° |
| 2026-05-08 18:34 | 48.22452 | 13.93875 | 6562 ft | 279 kts | 266° |
| 2026-05-08 18:34 | 48.22404 | 13.90958 | 7423 ft | 281 kts | 275° |
| 2026-05-08 18:34 | 48.22889 | 13.88114 | 8297 ft | 283 kts | 292° |
| 2026-05-08 18:34 | 48.23834 | 13.85532 | 9215 ft | 282 kts | 301° |
| 2026-05-08 18:35 | 48.24844 | 13.83015 | 10180 ft | 279 kts | 299° |
| 2026-05-08 18:35 | 48.25832 | 13.80496 | 10916 ft | 285 kts | 298° |
| 2026-05-08 18:35 | 48.26835 | 13.77868 | 11440 ft | 297 kts | 298° |
| 2026-05-08 18:35 | 48.27892 | 13.75083 | 11736 ft | 316 kts | 298° |
| 2026-05-08 18:36 | 48.29008 | 13.72141 | 12119 ft | 331 kts | 298° |
| 2026-05-08 18:36 | 48.30161 | 13.69111 | 12764 ft | 336 kts | 298° |
| 2026-05-08 18:36 | 48.31333 | 13.66046 | 13453 ft | 340 kts | 298° |
| 2026-05-08 18:36 | 48.32521 | 13.62946 | 14142 ft | 344 kts | 298° |
| 2026-05-08 18:37 | 48.33724 | 13.59815 | 14757 ft | 347 kts | 298° |
| 2026-05-08 18:37 | 48.34938 | 13.56656 | 15369 ft | 350 kts | 298° |
| 2026-05-08 18:37 | 48.36159 | 13.53460 | 15976 ft | 354 kts | 298° |
| 2026-05-08 18:37 | 48.37385 | 13.50236 | 16579 ft | 357 kts | 298° |
| 2026-05-08 18:38 | 48.38623 | 13.46970 | 17191 ft | 360 kts | 298° |
| 2026-05-08 18:38 | 48.39865 | 13.43678 | 17787 ft | 364 kts | 298° |
| 2026-05-08 18:38 | 48.41120 | 13.40349 | 18371 ft | 367 kts | 298° |
| 2026-05-08 18:38 | 48.42388 | 13.36988 | 18901 ft | 370 kts | 298° |
| 2026-05-08 18:39 | 48.43635 | 13.33579 | 19446 ft | 372 kts | 294° |
| 2026-05-08 18:39 | 48.44613 | 13.30022 | 19986 ft | 373 kts | 290° |
| 2026-05-08 18:39 | 48.45574 | 13.26373 | 20549 ft | 375 kts | 290° |
| 2026-05-08 18:39 | 48.46539 | 13.22704 | 21107 ft | 377 kts | 290° |
| 2026-05-08 18:40 | 48.47512 | 13.19014 | 21658 ft | 380 kts | 290° |
| 2026-05-08 18:40 | 48.48490 | 13.15305 | 22201 ft | 382 kts | 290° |
| 2026-05-08 18:40 | 48.49471 | 13.11575 | 22728 ft | 384 kts | 290° |
| 2026-05-08 18:40 | 48.50455 | 13.07817 | 23239 ft | 386 kts | 290° |
| 2026-05-08 18:41 | 48.51445 | 13.04031 | 23726 ft | 389 kts | 289° |
| 2026-05-08 18:41 | 48.52440 | 13.00230 | 24131 ft | 391 kts | 289° |
| 2026-05-08 18:41 | 48.53440 | 12.96411 | 24535 ft | 393 kts | 289° |
| 2026-05-08 18:41 | 48.54445 | 12.92565 | 24938 ft | 394 kts | 289° |
| 2026-05-08 18:42 | 48.55452 | 12.88702 | 25332 ft | 396 kts | 289° |
| 2026-05-08 18:42 | 48.56461 | 12.84824 | 25709 ft | 398 kts | 288° |
| 2026-05-08 18:42 | 48.57474 | 12.80928 | 26082 ft | 399 kts | 288° |
| 2026-05-08 18:42 | 48.58489 | 12.77016 | 26451 ft | 401 kts | 288° |
| 2026-05-08 18:43 | 48.59507 | 12.73081 | 26812 ft | 403 kts | 288° |
| 2026-05-08 18:43 | 48.60528 | 12.69128 | 27178 ft | 405 kts | 288° |
| 2026-05-08 18:43 | 48.61550 | 12.65159 | 27525 ft | 407 kts | 288° |
| 2026-05-08 18:43 | 48.62574 | 12.61168 | 27861 ft | 408 kts | 287° |
| 2026-05-08 18:44 | 48.63602 | 12.57158 | 28206 ft | 410 kts | 287° |
| 2026-05-08 18:44 | 48.64632 | 12.53127 | 28533 ft | 412 kts | 287° |
| 2026-05-08 18:44 | 48.65666 | 12.49086 | 28854 ft | 413 kts | 287° |
| 2026-05-08 18:44 | 48.66708 | 12.45019 | 29167 ft | 415 kts | 287° |
| 2026-05-08 18:45 | 48.67751 | 12.40943 | 29477 ft | 416 kts | 287° |
| 2026-05-08 18:45 | 48.68797 | 12.36842 | 29776 ft | 418 kts | 287° |
| 2026-05-08 18:45 | 48.69845 | 12.32733 | 30029 ft | 419 kts | 287° |
| 2026-05-08 18:45 | 48.70886 | 12.28652 | 30083 ft | 409 kts | 287° |
| 2026-05-08 18:46 | 48.72899 | 12.20724 | 30087 ft | 400 kts | 286° |
| 2026-05-08 18:46 | 48.74883 | 12.12881 | 30086 ft | 400 kts | 289° |
| 2026-05-08 18:47 | 48.77455 | 12.05348 | 30089 ft | 403 kts | 293° |
| 2026-05-08 18:47 | 48.80094 | 11.97847 | 30088 ft | 403 kts | 293° |
| 2026-05-08 18:48 | 48.82713 | 11.90392 | 30085 ft | 402 kts | 293° |
| 2026-05-08 18:48 | 48.85331 | 11.82887 | 30093 ft | 402 kts | 294° |
| 2026-05-08 18:49 | 48.87935 | 11.75368 | 30079 ft | 402 kts | 294° |
| 2026-05-08 18:49 | 48.90116 | 11.69067 | 30077 ft | 402 kts | 294° |
| 2026-05-08 18:50 | 48.92725 | 11.61540 | 30072 ft | 402 kts | 294° |
| 2026-05-08 18:50 | 48.95329 | 11.53994 | 30084 ft | 402 kts | 294° |
| 2026-05-08 18:51 | 48.97927 | 11.46444 | 30074 ft | 403 kts | 295° |
| 2026-05-08 18:51 | 49.00505 | 11.38907 | 30057 ft | 404 kts | 294° |
| 2026-05-08 18:52 | 49.03117 | 11.31252 | 30058 ft | 405 kts | 294° |
| 2026-05-08 18:52 | 49.05703 | 11.23663 | 29958 ft | 405 kts | 294° |
| 2026-05-08 18:53 | 49.06996 | 11.19879 | 29668 ft | 401 kts | 296° |
| 2026-05-08 18:53 | 49.08465 | 11.16279 | 29390 ft | 400 kts | 300° |
| 2026-05-08 18:53 | 49.10004 | 11.12749 | 29110 ft | 398 kts | 301° |
| 2026-05-08 18:53 | 49.11550 | 11.09265 | 28924 ft | 395 kts | 301° |
| 2026-05-08 18:54 | 49.13101 | 11.05789 | 29080 ft | 397 kts | 301° |
| 2026-05-08 18:54 | 49.14656 | 11.02300 | 29095 ft | 398 kts | 301° |
| 2026-05-08 18:54 | 49.17754 | 10.95299 | 29125 ft | 397 kts | 301° |
| 2026-05-08 18:55 | 49.22386 | 10.84770 | 29113 ft | 398 kts | 301° |
| 2026-05-08 18:56 | 49.25753 | 10.78024 | 28818 ft | 399 kts | 306° |
| 2026-05-08 18:56 | 49.27499 | 10.74731 | 28536 ft | 398 kts | 306° |
| 2026-05-08 18:56 | 49.29238 | 10.71446 | 28269 ft | 396 kts | 306° |
| 2026-05-08 18:56 | 49.30968 | 10.68172 | 27999 ft | 395 kts | 306° |
| 2026-05-08 18:57 | 49.32692 | 10.64902 | 27727 ft | 394 kts | 306° |
| 2026-05-08 18:57 | 49.34410 | 10.61641 | 27453 ft | 392 kts | 306° |
| 2026-05-08 18:57 | 49.36120 | 10.58390 | 27201 ft | 390 kts | 306° |
| 2026-05-08 18:57 | 49.37819 | 10.55153 | 27071 ft | 389 kts | 306° |
| 2026-05-08 18:58 | 49.39515 | 10.51919 | 27108 ft | 389 kts | 306° |
| 2026-05-08 18:58 | 49.41213 | 10.48678 | 27091 ft | 390 kts | 306° |
| 2026-05-08 18:58 | 49.42909 | 10.45440 | 27091 ft | 390 kts | 306° |
| 2026-05-08 18:58 | 49.44610 | 10.42191 | 27091 ft | 389 kts | 306° |
| 2026-05-08 18:59 | 49.46308 | 10.38945 | 27091 ft | 389 kts | 306° |
| 2026-05-08 18:59 | 49.48010 | 10.35691 | 27091 ft | 389 kts | 306° |
| 2026-05-08 18:59 | 49.49699 | 10.32440 | 26960 ft | 389 kts | 304° |
| 2026-05-08 18:59 | 49.51157 | 10.28877 | 26729 ft | 399 kts | 298° |
| 2026-05-08 19:00 | 49.52567 | 10.25164 | 26474 ft | 403 kts | 298° |
| 2026-05-08 19:00 | 49.53978 | 10.21437 | 26218 ft | 403 kts | 298° |
| 2026-05-08 19:00 | 49.55388 | 10.17713 | 25927 ft | 402 kts | 298° |
| 2026-05-08 19:00 | 49.56789 | 10.14013 | 25550 ft | 399 kts | 298° |
| 2026-05-08 19:01 | 49.58183 | 10.10328 | 25178 ft | 397 kts | 298° |
| 2026-05-08 19:01 | 49.59567 | 10.06661 | 24815 ft | 394 kts | 298° |
| 2026-05-08 19:01 | 49.60941 | 10.03016 | 24456 ft | 392 kts | 298° |
| 2026-05-08 19:01 | 49.62305 | 9.99382 | 24107 ft | 390 kts | 298° |
| 2026-05-08 19:02 | 49.63634 | 9.95755 | 23750 ft | 387 kts | 296° |
| 2026-05-08 19:02 | 49.64868 | 9.92085 | 23349 ft | 385 kts | 295° |
| 2026-05-08 19:02 | 49.66037 | 9.88375 | 22930 ft | 383 kts | 294° |
| 2026-05-08 19:02 | 49.67171 | 9.84657 | 22516 ft | 381 kts | 293° |
| 2026-05-08 19:03 | 49.68289 | 9.80976 | 22130 ft | 375 kts | 293° |
| 2026-05-08 19:03 | 49.69391 | 9.77380 | 21857 ft | 367 kts | 294° |
| 2026-05-08 19:03 | 49.70486 | 9.73853 | 21535 ft | 361 kts | 294° |
| 2026-05-08 19:03 | 49.71567 | 9.70399 | 21235 ft | 354 kts | 294° |
| 2026-05-08 19:04 | 49.72630 | 9.67012 | 20979 ft | 346 kts | 294° |
| 2026-05-08 19:04 | 49.73675 | 9.63684 | 20637 ft | 343 kts | 294° |
| 2026-05-08 19:04 | 49.74708 | 9.60372 | 20260 ft | 341 kts | 294° |
| 2026-05-08 19:04 | 49.75735 | 9.57078 | 19888 ft | 339 kts | 294° |
| 2026-05-08 19:05 | 49.76757 | 9.53803 | 19519 ft | 337 kts | 294° |
| 2026-05-08 19:05 | 49.77773 | 9.50541 | 19159 ft | 336 kts | 294° |
| 2026-05-08 19:05 | 49.78784 | 9.47290 | 18798 ft | 335 kts | 294° |
| 2026-05-08 19:05 | 49.79791 | 9.44049 | 18440 ft | 333 kts | 294° |
| 2026-05-08 19:06 | 49.80792 | 9.40825 | 18044 ft | 332 kts | 294° |
| 2026-05-08 19:06 | 49.81787 | 9.37615 | 17650 ft | 331 kts | 294° |
| 2026-05-08 19:06 | 49.82781 | 9.34404 | 17235 ft | 329 kts | 294° |
| 2026-05-08 19:06 | 49.83765 | 9.31214 | 16842 ft | 327 kts | 294° |
| 2026-05-08 19:07 | 49.84742 | 9.28037 | 16451 ft | 326 kts | 294° |
| 2026-05-08 19:07 | 49.85712 | 9.24874 | 16058 ft | 324 kts | 294° |
| 2026-05-08 19:07 | 49.86677 | 9.21733 | 15684 ft | 322 kts | 294° |
| 2026-05-08 19:07 | 49.87641 | 9.18602 | 15309 ft | 321 kts | 294° |
| 2026-05-08 19:08 | 49.88599 | 9.15490 | 14933 ft | 319 kts | 294° |
| 2026-05-08 19:08 | 49.89547 | 9.12394 | 14573 ft | 317 kts | 294° |
| 2026-05-08 19:08 | 49.90493 | 9.09299 | 14194 ft | 317 kts | 294° |
| 2026-05-08 19:08 | 49.91438 | 9.06203 | 13613 ft | 317 kts | 294° |
| 2026-05-08 19:09 | 49.92291 | 9.03094 | 13003 ft | 309 kts | 286° |
| 2026-05-08 19:09 | 49.92897 | 8.99930 | 12342 ft | 304 kts | 285° |
| 2026-05-08 19:09 | 49.93494 | 8.96801 | 11687 ft | 300 kts | 285° |
| 2026-05-08 19:09 | 49.94081 | 8.93711 | 11215 ft | 297 kts | 285° |
| 2026-05-08 19:10 | 49.94665 | 8.90628 | 11100 ft | 299 kts | 285° |
| 2026-05-08 19:10 | 49.95248 | 8.87542 | 11104 ft | 298 kts | 285° |
| 2026-05-08 19:10 | 49.95833 | 8.84447 | 11105 ft | 298 kts | 285° |
| 2026-05-08 19:10 | 49.96417 | 8.81360 | 11107 ft | 297 kts | 285° |
| 2026-05-08 19:11 | 49.96992 | 8.78339 | 10980 ft | 287 kts | 285° |
| 2026-05-08 19:11 | 49.97547 | 8.75417 | 10669 ft | 284 kts | 284° |
| 2026-05-08 19:11 | 49.97862 | 8.72418 | 10337 ft | 280 kts | 270° |
| 2026-05-08 19:11 | 49.97653 | 8.69432 | 9995 ft | 278 kts | 255° |
| 2026-05-08 19:12 | 49.97025 | 8.66599 | 9609 ft | 276 kts | 249° |
| 2026-05-08 19:12 | 49.96346 | 8.63805 | 9204 ft | 275 kts | 249° |
| 2026-05-08 19:12 | 49.95678 | 8.61041 | 8972 ft | 273 kts | 250° |
| 2026-05-08 19:12 | 49.95015 | 8.58285 | 8542 ft | 273 kts | 250° |
| 2026-05-08 19:13 | 49.94350 | 8.55531 | 8168 ft | 271 kts | 250° |
| 2026-05-08 19:13 | 49.93687 | 8.52790 | 8107 ft | 272 kts | 250° |
| 2026-05-08 19:13 | 49.93027 | 8.50040 | 8109 ft | 273 kts | 250° |
| 2026-05-08 19:13 | 49.92364 | 8.47279 | 8110 ft | 273 kts | 250° |
| 2026-05-08 19:14 | 49.91703 | 8.44520 | 8097 ft | 273 kts | 250° |
| 2026-05-08 19:14 | 49.91040 | 8.41755 | 8098 ft | 273 kts | 250° |
| 2026-05-08 19:14 | 49.90371 | 8.38989 | 8008 ft | 273 kts | 250° |
| 2026-05-08 19:14 | 49.89703 | 8.36240 | 7740 ft | 272 kts | 250° |
| 2026-05-08 19:15 | 49.89038 | 8.33496 | 7368 ft | 270 kts | 249° |
| 2026-05-08 19:15 | 49.88379 | 8.30779 | 7007 ft | 268 kts | 249° |
| 2026-05-08 19:15 | 49.87723 | 8.28085 | 6631 ft | 266 kts | 249° |
| 2026-05-08 19:15 | 49.87069 | 8.25406 | 6248 ft | 265 kts | 249° |
| 2026-05-08 19:16 | 49.86420 | 8.22735 | 5854 ft | 265 kts | 249° |
| 2026-05-08 19:16 | 49.85771 | 8.20069 | 5466 ft | 264 kts | 250° |
| 2026-05-08 19:16 | 49.85447 | 8.17291 | 5090 ft | 265 kts | 275° |
| 2026-05-08 19:16 | 49.86009 | 8.14595 | 4706 ft | 266 kts | 304° |
| 2026-05-08 19:17 | 49.87335 | 8.12655 | 4320 ft | 263 kts | 334° |
| 2026-05-08 19:17 | 49.89021 | 8.11603 | 4023 ft | 257 kts | 343° |
| 2026-05-08 19:17 | 49.90681 | 8.10866 | 3994 ft | 239 kts | 356° |
| 2026-05-08 19:17 | 49.92238 | 8.11328 | 4008 ft | 228 kts | 34° |
| 2026-05-08 19:18 | 49.93200 | 8.13195 | 4007 ft | 226 kts | 72° |
| 2026-05-08 19:18 | 49.93628 | 8.15550 | 4009 ft | 227 kts | 72° |
| 2026-05-08 19:18 | 49.94154 | 8.17864 | 4007 ft | 228 kts | 70° |
| 2026-05-08 19:18 | 49.94714 | 8.20158 | 4009 ft | 228 kts | 70° |
| 2026-05-08 19:19 | 49.95277 | 8.22462 | 4010 ft | 227 kts | 70° |
| 2026-05-08 19:19 | 49.95836 | 8.24757 | 4008 ft | 226 kts | 70° |
| 2026-05-08 19:19 | 49.96376 | 8.26983 | 3860 ft | 217 kts | 70° |
| 2026-05-08 19:19 | 49.96904 | 8.29160 | 3603 ft | 213 kts | 70° |
| 2026-05-08 19:20 | 49.97414 | 8.31263 | 3331 ft | 207 kts | 70° |
| 2026-05-08 19:20 | 49.97583 | 8.31961 | 3238 ft | 203 kts | 70° |
| 2026-05-08 19:20 | 49.98380 | 8.35254 | 2821 ft | 185 kts | 70° |
| 2026-05-08 19:20 | 49.98820 | 8.37076 | 2554 ft | 175 kts | 69° |
| 2026-05-08 19:21 | 49.99241 | 8.38820 | 2325 ft | 170 kts | 69° |
| 2026-05-08 19:21 | 49.99649 | 8.40508 | 2100 ft | 168 kts | 69° |
| 2026-05-08 19:21 | 50.00057 | 8.42201 | 1878 ft | 167 kts | 69° |
| 2026-05-08 19:21 | 50.00459 | 8.43871 | 1656 ft | 161 kts | 69° |
| 2026-05-08 19:22 | 50.00831 | 8.45415 | 1450 ft | 145 kts | 68° |
| 2026-05-08 19:22 | 50.01177 | 8.46848 | 1264 ft | 139 kts | 69° |
| 2026-05-08 19:22 | 50.01510 | 8.48252 | 1076 ft | 139 kts | 68° |
| 2026-05-08 19:22 | 50.01849 | 8.49658 | 882 ft | 140 kts | 67° |
| 2026-05-08 19:23 | 50.02183 | 8.51064 | 713 ft | 139 kts | 67° |
| 2026-05-08 19:23 | 50.02519 | 8.52460 | 517 ft | 138 kts | 67° |
| 2026-05-08 19:23 | 50.02854 | 8.53853 | 367 ft | 136 kts | 66° |
| 2026-05-08 19:23 | 50.03152 | 8.55075 | 350 ft | 101 kts | 70° |
| 2026-05-08 19:24 | 50.03337 | 8.55848 | 352 ft | 52 kts | 69° |
| 2026-05-08 19:24 | 50.03457 | 8.56253 | 350 ft | 31 kts | 50° |
| 2026-05-08 19:24 | 50.03594 | 8.56447 | 355 ft | 20 kts | 39° |
| 2026-05-08 19:24 | 50.03705 | 8.56589 | 350 ft | 21 kts | 39° |
| 2026-05-08 19:25 | 50.03793 | 8.56742 | 347 ft | 20 kts | 69° |
| 2026-05-08 19:25 | 50.03843 | 8.56942 | 348 ft | 18 kts | 69° |
| 2026-05-08 19:25 | 50.03886 | 8.57122 | 351 ft | 19 kts | 70° |
| 2026-05-08 19:25 | 50.03932 | 8.57316 | 353 ft | 16 kts | 69° |
| 2026-05-08 19:26 | 50.03973 | 8.57489 | 353 ft | 18 kts | 70° |
| 2026-05-08 19:26 | 50.04019 | 8.57680 | 348 ft | 18 kts | 69° |
| 2026-05-08 19:26 | 50.04065 | 8.57868 | 348 ft | 19 kts | 69° |
| 2026-05-08 19:26 | 50.04111 | 8.58063 | 351 ft | 18 kts | 68° |
| 2026-05-08 19:27 | 50.04206 | 8.58185 | 350 ft | 18 kts | 24° |
| 2026-05-08 19:27 | 50.04232 | 8.58202 | 346 ft | 0 kts | 17° |
| 2026-05-08 19:27 | 50.04236 | 8.58204 | 354 ft | 4 kts | 16° |
| 2026-05-08 19:28 | 50.04321 | 8.58184 | 350 ft | 20 kts | 339° |
| 2026-05-08 19:28 | 50.04453 | 8.58110 | 347 ft | 16 kts | 340° |
| 2026-05-08 19:28 | 50.04538 | 8.58051 | 355 ft | 8 kts | 298° |
| 2026-05-08 19:28 | 50.04532 | 8.57972 | 351 ft | 7 kts | 247° |
| 2026-05-08 19:29 | 50.04514 | 8.57909 | 349 ft | 6 kts | 248° |
| 2026-05-08 19:29 | 50.04507 | 8.57870 | 349 ft | 5 kts | 253° |
| 2026-05-08 19:29 | 50.04496 | 8.57822 | 350 ft | 4 kts | 247° |
| 2026-05-08 19:29 | 50.04486 | 8.57783 | 347 ft | 6 kts | 249° |
| 2026-05-08 19:30 | 50.04454 | 8.57646 | 350 ft | 16 kts | 251° |
| 2026-05-08 19:30 | 50.04419 | 8.57501 | 347 ft | 14 kts | 249° |
| 2026-05-08 19:30 | 50.04388 | 8.57370 | 347 ft | 12 kts | 250° |
| 2026-05-08 19:30 | 50.04361 | 8.57256 | 348 ft | 11 kts | 250° |
| 2026-05-08 19:31 | 50.04337 | 8.57156 | 348 ft | 10 kts | 249° |
| 2026-05-08 19:31 | 50.04302 | 8.57011 | 349 ft | 16 kts | 250° |
| 2026-05-08 19:31 | 50.04265 | 8.56854 | 350 ft | 14 kts | 249° |
| 2026-05-08 19:31 | 50.04224 | 8.56682 | 352 ft | 21 kts | 250° |
| 2026-05-08 19:32 | 50.04175 | 8.56478 | 350 ft | 20 kts | 250° |
| 2026-05-08 19:32 | 50.04158 | 8.56408 | 353 ft | 0 kts | 249° |
| 2026-05-08 19:33 | 50.04156 | 8.56398 | 347 ft | 5 kts | 249° |
| 2026-05-08 19:34 | 50.04182 | 8.56307 | 346 ft | 13 kts | 338° |
| 2026-05-08 19:34 | 50.04261 | 8.56262 | 345 ft | 6 kts | 340° |
| 2026-05-08 19:37 | 50.04269 | 8.56257 | 351 ft | 5 kts | 340° |
| 2026-05-08 19:37 | 50.04300 | 8.56210 | 346 ft | 6 kts | 257° |
| 2026-05-08 19:38 | 50.04289 | 8.56170 | 347 ft | 2 kts | 254° |
| 2026-05-08 19:38 | 50.04289 | 8.56149 | 345 ft | 2 kts | 271° |
| 2026-05-08 19:38 | 50.04298 | 8.56102 | 348 ft | 11 kts | 293° |
| 2026-05-08 19:38 | 50.04363 | 8.56046 | 350 ft | 11 kts | 341° |
| 2026-05-08 19:39 | 50.04438 | 8.55994 | 348 ft | 12 kts | 318° |
| 2026-05-08 19:39 | 50.04522 | 8.55991 | 344 ft | 14 kts | 21° |
| 2026-05-08 19:39 | 50.04572 | 8.56114 | 353 ft | 15 kts | 71° |
| 2026-05-08 19:39 | 50.04610 | 8.56274 | 348 ft | 16 kts | 70° |
| 2026-05-08 19:40 | 50.04641 | 8.56413 | 346 ft | 13 kts | 76° |
| 2026-05-08 19:40 | 50.04617 | 8.56496 | 346 ft | 7 kts | 127° |
| 2026-05-08 19:40 | 50.04598 | 8.56560 | 349 ft | 6 kts | 114° |
| 2026-05-08 19:40 | 50.04583 | 8.56611 | 352 ft | 4 kts | 115° |
| 2026-05-08 19:41 | 50.04576 | 8.56634 | 347 ft | 0 kts | 115° |